AirNav   Air Wisconsin pilot careers
 
 721 users online  

OR02 River Run Ranch Airport
Redmond, Oregon, USA

GOING TO REDMOND?


FAA INFORMATION EFFECTIVE 11 OCTOBER 2018

Location

FAA Identifier: OR02
Lat/Long: 44-20-08.4410N / 121-01-12.1040W
44-20.140683N / 121-01.201733W
44.3356781 / -121.0200289
(estimated)
Elevation: 2600 ft. / 792 m (estimated)
Variation: 18E (1985)
From city: 8 miles NE of REDMOND, OR
Time zone: UTC -7 (UTC -8 during Standard Time)
Zip code: 97754

Airport Operations

Airport use: CLOSED INDEFINITELY, PERSONAL USE.
Activation date: 07/1988
Control tower: no
ARTCC: SEATTLE CENTER
FSS: MC MINNVILLE FLIGHT SERVICE STATION
Attendance: UNATNDD
Segmented circle: no

Airport Communications

WX AWOS-3PT at S39 (6 nm SE): 118.325 (541-447-4060)
WX ASOS at RDM (7 nm SW): 119.025 (541-504-8743)
WX AWOS-3 at BDN (16 nm SW): 134.425 (541-382-1477)

Nearby radio navigation aids

VOR radial/distance  VOR name  Freq  Var
DSDr050/13.2DESCHUTES VORTAC117.6018E

Airport Services

Runway Information

Runway 9/27

Dimensions: 2500 x 25 ft. / 762 x 8 m
Surface: dirt
RUNWAY 9  RUNWAY 27
Traffic pattern: leftleft

Airport Ownership and Management from official FAA records

Ownership: Privately-owned
Owner: LORRY TOGNOLI
13223 NE O'NEIL HWY
REDMOND, OR 97756
Phone 541-815-0461

Additional Remarks

(ARPT STATUS) ARPT CLSD INDEFLY.

Instrument Procedures

There are no published instrument procedures at OR02.

Some nearby airports with instrument procedures:

S39 - Prineville Airport (6 nm SE)
KRDM - Roberts Field Airport (7 nm SW)
KBDN - Bend Municipal Airport (16 nm SW)
S33 - Madras Municipal Airport (21 nm N)
S21 - Sunriver Airport (33 nm SW)
 
Loc | Ops | Rwys | IFR | FBO | Links
Com | Nav | Svcs | Stats | Notes


 
Area around OR02 (River Run Ranch Airport)
 
Road maps at: MapQuest Bing Google
 
Aerial photo
WARNING: Photo may not be current or correct
Aerial photo of OR02 (River Run Ranch Airport)
Do you have a better or more recent aerial photo of River Run Ranch Airport that you would like to share? If so, please send us your photo.

 
Sectional chart

 
Airport distance calculator
Flying to River Run Ranch Airport? Find the distance to fly.

From to OR02

Sunrise and sunset
Times for 17-Oct-2018
 Local
(UTC-7)
 Zulu
(UTC)
Morning civil twilight06:5313:53
Sunrise07:2314:23
Sunset18:1601:16
Evening civil twilight18:4601:46

Current date and time
Zulu (UTC)  18-Oct-2018 04:05:49
Local (UTC-7)  17-Oct-2018 21:05:49
 
METAR
KS39 
6nm SE 
180355Z AUTO 00000KT 10SM CLR 08/M02 A3019 RMK AO2
KRDM 
8nm SW 
180356Z AUTO 24003KT 10SM CLR 09/M02 A3019 RMK AO2 SLP225 T00941017
KBDN 
16nm SW 
180355Z AUTO 24005KT 10SM CLR 10/M02 A3020 RMK AO2
TAF
KRDM 
8nm SW 
171728Z 1718/1818 VRB04KT P6SM SKC FM172200 33007KT P6SM SKC FM180400 VRB04KT P6SM SKC FM181000 15004KT P6SM FEW250
KBDN 
16nm SW 
171728Z 1718/1818 VRB04KT P6SM SKC FM172200 35007KT P6SM SKC FM180400 VRB04KT P6SM SKC FM181000 20004KT P6SM FEW250
NOTAMs
Click for the latest NOTAMs
NOTAMs are issued by the DoD/FAA and will open in a separate window not controlled by AirNav.

 

 
 

Would you like to see your business listed on this page?

 If your business provides an interesting product or service to pilots, flight crews, aircraft, or users of the River Run Ranch Airport, you should consider listing it here.  To start the listing process, click on the button below
 
Add a business
 

Other Pages about River Run Ranch Airport

Update a link
 
Copyright © AirNav, LLC. All rights reserved. Privacy Policy  Contact